Time;durP1;ratioP1;P1;durP2;ratioP2;P2;SDS_P1;SDS_P2;PMS_P1;PMS_P2;Temp;Humidity;BMP_temperature;BMP_pressure;BME280_temperature;BME280_humidity;BME280_pressure;Samples;Min_cycle;Max_cycle;Signal;HPM_P1;HPM_P2
2022/06/13 00:02:11;;;;;;;2.35;1.20;;;;;;;;;;5052648;28;20044;-82
2022/06/13 00:04:37;;;;;;;3.85;1.38;;;;;;;;;;5055059;28;20029;-82
2022/06/13 00:07:04;;;;;;;4.63;1.00;;;;;;;;;;5051050;28;20643;-82
2022/06/13 00:09:30;;;;;;;1.50;1.20;;;;;;;;;;5050826;28;20036;-82
2022/06/13 00:11:57;;;;;;;1.30;0.90;;;;;;;;;;5052453;28;20025;-82
2022/06/13 00:14:23;;;;;;;5.15;1.30;;;;;;;;;;5052859;28;20021;-82
2022/06/13 00:16:49;;;;;;;2.05;1.20;;;;;;;;;;5053171;28;20028;-82
2022/06/13 00:19:16;;;;;;;2.45;1.30;;;;;;;;;;5053967;28;20028;-82
2022/06/13 00:21:42;;;;;;;1.65;1.02;;;;;;;;;;5052436;28;20033;-81
2022/06/13 00:24:08;;;;;;;3.95;1.40;;;;;;;;;;5051730;28;20045;-82
2022/06/13 00:26:36;;;;;;;1.10;0.90;;;;;;;;;;5051317;28;20035;-82
2022/06/13 00:29:02;;;;;;;3.10;1.17;;;;;;;;;;5052052;28;20043;-82
2022/06/13 00:31:29;;;;;;;7.35;1.30;;;;;;;;;;5054204;28;20367;-82
2022/06/13 00:33:55;;;;;;;3.90;1.00;;;;;;;;;;5052085;28;20024;-82
2022/06/13 00:36:23;;;;;;;2.33;1.30;;;;;;;;;;5051844;28;20033;-82
2022/06/13 00:38:50;;;;;;;4.07;0.93;;;;;;;;;;5051852;28;20025;-82
2022/06/13 00:41:18;;;;;;;1.05;0.95;;;;;;;;;;5052056;28;20028;-82
2022/06/13 00:43:45;;;;;;;2.38;1.20;;;;;;;;;;5053053;28;20017;-82
2022/06/13 00:46:29;;;;;;;2.60;0.90;;;;;;;;;;5053084;28;20047;-82
2022/06/13 00:49:00;;;;;;;1.35;1.10;;;;;;;;;;5050259;28;20037;-82
2022/06/13 00:51:26;;;;;;;;;;;;;;;;;;5052077;28;20029;-82
2022/06/13 00:53:53;;;;;;;1.20;1.10;;;;;;;;;;5051394;28;19905;-82
2022/06/13 00:56:22;;;;;;;0.95;0.88;;;;;;;;;;5051658;28;20036;-81
2022/06/13 00:58:56;;;;;;;2.25;1.30;;;;;;;;;;5052295;28;20085;-82
2022/06/13 01:01:23;;;;;;;1.30;1.00;;;;;;;;;;5051975;28;20033;-82
2022/06/13 01:03:50;;;;;;;1.13;1.00;;;;;;;;;;5051793;28;20021;-82
2022/06/13 01:06:17;;;;;;;5.03;1.23;;;;;;;;;;5051345;28;20043;-82
2022/06/13 01:08:44;;;;;;;3.17;1.30;;;;;;;;;;5051022;28;20508;-82
2022/06/13 01:11:18;;;;;;;2.15;1.17;;;;;;;;;;5050493;28;20037;-82
2022/06/13 01:13:44;;;;;;;1.80;1.00;;;;;;;;;;5052651;28;20021;-82
2022/06/13 01:16:13;;;;;;;1.50;1.10;;;;;;;;;;5051923;28;20033;-82
2022/06/13 01:18:42;;;;;;;8.55;1.40;;;;;;;;;;5051228;28;20043;-82
2022/06/13 01:21:09;;;;;;;1.33;0.93;;;;;;;;;;5051119;28;20107;-82
2022/06/13 01:23:41;;;;;;;2.72;1.20;;;;;;;;;;5049148;28;20513;-82
2022/06/13 01:26:26;;;;;;;2.75;1.20;;;;;;;;;;5035555;28;20082;-82
2022/06/13 01:29:10;;;;;;;3.70;1.13;;;;;;;;;;5049419;28;20037;-82
2022/06/13 01:31:57;;;;;;;3.50;1.25;;;;;;;;;;5048973;28;20478;-82
2022/06/13 01:34:26;;;;;;;4.70;1.23;;;;;;;;;;5051530;28;20032;-81
2022/06/13 01:36:55;;;;;;;2.28;1.15;;;;;;;;;;5050443;28;20374;-82
2022/06/13 01:39:34;;;;;;;2.40;1.27;;;;;;;;;;5050895;28;20077;-82
2022/06/13 01:42:00;;;;;;;3.20;1.20;;;;;;;;;;5051069;28;20025;-82
2022/06/13 01:44:34;;;;;;;3.03;1.25;;;;;;;;;;5050842;28;20027;-81
2022/06/13 01:47:06;;;;;;;4.97;1.23;;;;;;;;;;5049469;28;20022;-82
2022/06/13 01:49:36;;;;;;;2.83;1.20;;;;;;;;;;5051493;28;20036;-81
2022/06/13 01:52:13;;;;;;;4.22;1.13;;;;;;;;;;5050508;28;20042;-81
2022/06/13 01:54:55;;;;;;;2.22;1.10;;;;;;;;;;5050518;28;20024;-82
2022/06/13 01:57:30;;;;;;;1.80;1.00;;;;;;;;;;5050839;28;20029;-82
2022/06/13 02:00:11;;;;;;;5.25;1.30;;;;;;;;;;5050408;28;20513;-81
2022/06/13 02:02:43;;;;;;;2.63;1.20;;;;;;;;;;5049293;28;20021;-81
2022/06/13 02:05:16;;;;;;;2.55;1.40;;;;;;;;;;5034470;28;20017;-82
2022/06/13 02:07:45;;;;;;;4.75;0.90;;;;;;;;;;5047122;28;20029;-82
2022/06/13 02:10:15;;;;;;;1.55;1.10;;;;;;;;;;5051130;28;20037;-82
2022/06/13 02:12:43;;;;;;;3.30;1.08;;;;;;;;;;5050323;28;20025;-82
2022/06/13 02:15:39;;;;;;;2.65;1.05;;;;;;;;;;5050084;28;20025;-82
2022/06/13 02:18:23;;;;;;;3.63;1.10;;;;;;;;;;5045417;28;20037;-82
2022/06/13 02:20:53;;;;;;;2.03;1.30;;;;;;;;;;5049651;28;20450;-81
2022/06/13 02:23:21;;;;;;;2.70;1.20;;;;;;;;;;5049894;28;20397;-81
2022/06/13 02:25:54;;;;;;;2.35;1.35;;;;;;;;;;5051267;28;20027;-81
2022/06/13 02:28:30;;;;;;;2.33;1.30;;;;;;;;;;5050266;28;20090;-82
2022/06/13 02:31:16;;;;;;;4.57;1.27;;;;;;;;;;5049829;28;20029;-82
2022/06/13 02:33:51;;;;;;;3.70;1.20;;;;;;;;;;5049632;28;20037;-81
2022/06/13 02:36:21;;;;;;;2.83;1.30;;;;;;;;;;5049673;28;20028;-82
2022/06/13 02:38:54;;;;;;;1.92;1.63;;;;;;;;;;5050073;28;20025;-81
2022/06/13 02:41:23;;;;;;;1.50;1.20;;;;;;;;;;5049422;28;20390;-81
2022/06/13 02:43:59;;;;;;;7.85;1.30;;;;;;;;;;5051077;28;20036;-81
2022/06/13 02:46:44;;;;;;;6.55;1.35;;;;;;;;;;5050474;28;20074;-81
2022/06/13 02:49:15;;;;;;;1.65;1.15;;;;;;;;;;5048546;28;20082;-81
2022/06/13 02:51:41;;;;;;;2.20;1.63;;;;;;;;;;5049994;28;20025;-82
2022/06/13 02:54:08;;;;;;;2.00;1.50;;;;;;;;;;5049577;28;20036;-82
2022/06/13 02:57:23;;;;;;;4.75;1.20;;;;;;;;;;5049784;28;20381;-81
2022/06/13 02:59:33;;;;;;;3.13;1.25;;;;;;;;;;5036666;28;20025;-81
2022/06/13 03:02:01;;;;;;;1.88;1.42;;;;;;;;;;5049613;28;20034;-81
2022/06/13 03:04:27;;;;;;;2.47;1.17;;;;;;;;;;5051416;28;20028;-81
2022/06/13 03:06:53;;;;;;;2.92;1.50;;;;;;;;;;5049537;28;20027;-81
2022/06/13 03:09:26;;;;;;;2.45;1.30;;;;;;;;;;5049426;28;20509;-82
2022/06/13 03:12:11;;;;;;;3.70;1.30;;;;;;;;;;5049561;28;20025;-82
2022/06/13 03:14:37;;;;;;;3.70;1.40;;;;;;;;;;5049755;28;20014;-81
2022/06/13 03:17:10;;;;;;;1.65;1.30;;;;;;;;;;5048372;28;20024;-81
2022/06/13 03:19:36;;;;;;;4.63;1.40;;;;;;;;;;5051559;28;20020;-81
2022/06/13 03:22:08;;;;;;;2.47;1.30;;;;;;;;;;5048180;28;20017;-81
2022/06/13 03:24:35;;;;;;;1.30;1.20;;;;;;;;;;5047847;28;20049;-81
2022/06/13 03:27:04;;;;;;;2.70;1.30;;;;;;;;;;5049462;28;20021;-83
2022/06/13 03:29:33;;;;;;;3.75;1.52;;;;;;;;;;5049393;28;20036;-82
2022/06/13 03:32:08;;;;;;;3.72;1.60;;;;;;;;;;5049056;28;20686;-81
2022/06/13 03:34:37;;;;;;;4.63;1.85;;;;;;;;;;5051462;28;20036;-82
2022/06/13 03:37:12;;;;;;;7.38;2.05;;;;;;;;;;5049201;28;20044;-81
2022/06/13 03:39:45;;;;;;;5.10;1.60;;;;;;;;;;5049223;28;20017;-82
2022/06/13 03:42:32;;;;;;;2.60;1.58;;;;;;;;;;5049113;28;20029;-82
2022/06/13 03:45:04;;;;;;;3.92;1.63;;;;;;;;;;5049050;28;20027;-81
2022/06/13 03:47:35;;;;;;;3.42;1.75;;;;;;;;;;5048890;28;20029;-82
2022/06/13 03:50:14;;;;;;;1.63;1.40;;;;;;;;;;5049648;28;20029;-82
2022/06/13 03:52:43;;;;;;;4.80;1.60;;;;;;;;;;5047794;28;20032;-81
2022/06/13 03:55:18;;;;;;;2.08;1.48;;;;;;;;;;5048839;28;20041;-82
2022/06/13 03:58:00;;;;;;;2.33;1.70;;;;;;;;;;5049339;28;20027;-81
2022/06/13 04:00:29;;;;;;;2.22;1.60;;;;;;;;;;5047517;28;20032;-81
2022/06/13 04:02:55;;;;;;;2.92;1.70;;;;;;;;;;5050687;28;20027;-81
2022/06/13 04:05:24;;;;;;;2.42;1.88;;;;;;;;;;5084968;28;20029;-81
2022/06/13 04:07:51;;;;;;;3.92;1.95;;;;;;;;;;5053286;28;20047;-81
2022/06/13 04:10:21;;;;;;;3.35;1.80;;;;;;;;;;5054264;28;20482;-81
2022/06/13 04:13:15;;;;;;;2.63;1.60;;;;;;;;;;5052427;28;20032;-81
2022/06/13 04:15:48;;;;;;;3.53;1.80;;;;;;;;;;5051982;28;20018;-81
2022/06/13 04:18:17;;;;;;;3.83;1.95;;;;;;;;;;5052326;28;20424;-81
2022/06/13 04:20:57;;;;;;;2.85;1.65;;;;;;;;;;5052309;28;20017;-81
2022/06/13 04:23:43;;;;;;;4.80;1.88;;;;;;;;;;5050963;28;20033;-82
2022/06/13 04:26:19;;;;;;;3.35;2.00;;;;;;;;;;5036532;28;20033;-81
2022/06/13 04:28:51;;;;;;;3.20;1.80;;;;;;;;;;5050670;28;20086;-81
2022/06/13 04:31:18;;;;;;;1.67;1.58;;;;;;;;;;5053629;28;20099;-81
2022/06/13 04:33:53;;;;;;;3.45;2.13;;;;;;;;;;5052115;28;20029;-81
2022/06/13 04:36:22;;;;;;;2.33;1.63;;;;;;;;;;5051928;28;20051;-82
2022/06/13 04:38:51;;;;;;;4.68;1.88;;;;;;;;;;5050393;28;20033;-82
2022/06/13 04:41:19;;;;;;;6.53;2.05;;;;;;;;;;5050706;28;20417;-82
2022/06/13 04:43:47;;;;;;;3.15;2.10;;;;;;;;;;5053587;28;20029;-82
2022/06/13 04:46:15;;;;;;;3.22;2.00;;;;;;;;;;5048348;28;20029;-82
2022/06/13 04:48:43;;;;;;;3.70;1.83;;;;;;;;;;5047088;28;20041;-82
2022/06/13 04:51:11;;;;;;;3.35;2.10;;;;;;;;;;5050494;28;20551;-82
2022/06/13 04:53:45;;;;;;;6.13;2.30;;;;;;;;;;5050519;28;20017;-82
2022/06/13 04:56:11;;;;;;;10.18;2.55;;;;;;;;;;5036543;28;20032;-82
2022/06/13 04:58:39;;;;;;;5.32;2.10;;;;;;;;;;5053808;28;20381;-82
2022/06/13 05:01:14;;;;;;;2.70;1.92;;;;;;;;;;5050156;28;20025;-81
2022/06/13 05:03:43;;;;;;;2.65;1.98;;;;;;;;;;5050161;28;20033;-82
2022/06/13 05:06:28;;;;;;;4.88;2.28;;;;;;;;;;5051376;28;20017;-82
2022/06/13 05:08:56;;;;;;;2.47;1.98;;;;;;;;;;5051368;28;20151;-81
2022/06/13 05:11:23;;;;;;;5.07;2.13;;;;;;;;;;5049873;28;20017;-82
2022/06/13 05:13:51;;;;;;;6.53;2.25;;;;;;;;;;5051673;28;20047;-82
2022/06/13 05:16:32;;;;;;;5.57;2.60;;;;;;;;;;5053020;28;20428;-82
2022/06/13 05:19:09;;;;;;;4.05;2.50;;;;;;;;;;5049596;28;20031;-82
2022/06/13 05:21:45;;;;;;;3.45;2.10;;;;;;;;;;5048542;28;20037;-81
2022/06/13 05:24:11;;;;;;;4.68;2.42;;;;;;;;;;5050773;28;20049;-81
2022/06/13 05:26:37;;;;;;;3.95;2.30;;;;;;;;;;5051413;28;20035;-82
2022/06/13 05:29:04;;;;;;;7.05;2.60;;;;;;;;;;5050583;28;20037;-81
2022/06/13 05:31:30;;;;;;;5.97;2.45;;;;;;;;;;5053245;28;20023;-81
2022/06/13 05:33:58;;;;;;;8.32;2.38;;;;;;;;;;5051188;28;20029;-81
2022/06/13 05:36:25;;;;;;;3.85;2.17;;;;;;;;;;5050752;28;20029;-82
2022/06/13 05:38:53;;;;;;;3.08;2.42;;;;;;;;;;5049451;28;20516;-82
2022/06/13 05:41:19;;;;;;;5.75;2.33;;;;;;;;;;5050878;28;20039;-81
2022/06/13 05:43:46;;;;;;;5.40;2.65;;;;;;;;;;5051785;28;20017;-81
2022/06/13 05:46:18;;;;;;;5.00;2.65;;;;;;;;;;5051867;28;20055;-82
2022/06/13 05:48:45;;;;;;;7.60;2.50;;;;;;;;;;5050451;28;20547;-82
2022/06/13 05:51:11;;;;;;;5.57;2.15;;;;;;;;;;5050915;28;20043;-81
2022/06/13 05:53:37;;;;;;;8.70;2.83;;;;;;;;;;5050565;28;20017;-82
2022/06/13 05:56:04;;;;;;;2.90;2.40;;;;;;;;;;5049893;28;20424;-82
2022/06/13 05:58:30;;;;;;;5.65;2.50;;;;;;;;;;5051571;28;20033;-81
2022/06/13 06:00:57;;;;;;;4.15;2.40;;;;;;;;;;5049151;28;20027;-82
2022/06/13 06:03:24;;;;;;;7.15;2.65;;;;;;;;;;5050724;28;20039;-82
2022/06/13 06:05:51;;;;;;;3.70;2.65;;;;;;;;;;5050209;28;20013;-82
2022/06/13 06:08:22;;;;;;;4.93;2.83;;;;;;;;;;5049187;28;20044;-82
2022/06/13 06:10:53;;;;;;;4.05;2.53;;;;;;;;;;5051199;28;20543;-81
2022/06/13 06:13:19;;;;;;;4.35;2.83;;;;;;;;;;5049765;28;20525;-82
2022/06/13 06:15:46;;;;;;;4.50;2.72;;;;;;;;;;5054031;28;20017;-82
2022/06/13 06:18:13;;;;;;;6.97;2.97;;;;;;;;;;5056151;28;20029;-82
2022/06/13 06:20:40;;;;;;;5.65;2.78;;;;;;;;;;5049770;28;20025;-83
2022/06/13 06:23:07;;;;;;;4.82;2.70;;;;;;;;;;5049385;28;20513;-83
2022/06/13 06:25:34;;;;;;;4.60;2.78;;;;;;;;;;5050673;28;20505;-83
2022/06/13 06:28:01;;;;;;;10.15;2.67;;;;;;;;;;5045218;28;20413;-83
2022/06/13 06:30:27;;;;;;;6.85;3.50;;;;;;;;;;5049167;28;20029;-82
2022/06/13 06:32:57;;;;;;;13.38;3.80;;;;;;;;;;5048645;28;20021;-83
2022/06/13 06:35:24;;;;;;;10.75;3.40;;;;;;;;;;5047803;28;20025;-83
2022/06/13 06:37:52;;;;;;;6.50;2.95;;;;;;;;;;5049634;28;20029;-82
2022/06/13 06:40:19;;;;;;;8.02;3.00;;;;;;;;;;5048969;28;20037;-82
2022/06/13 06:42:45;;;;;;;5.40;3.38;;;;;;;;;;5048769;28;20032;-82
2022/06/13 06:45:12;;;;;;;5.82;3.17;;;;;;;;;;5047262;28;20033;-82
2022/06/13 06:47:42;;;;;;;9.57;3.38;;;;;;;;;;5049176;28;20024;-82
2022/06/13 06:50:21;;;;;;;4.50;3.38;;;;;;;;;;5040989;28;20035;-82
2022/06/13 06:52:48;;;;;;;9.70;3.28;;;;;;;;;;5048353;28;20581;-82
2022/06/13 07:00:46;;;;;;;6.40;2.47;;;;;;;;;;5049103;28;20375;-83
2022/06/13 07:03:12;;;;;;;6.50;2.85;;;;;;;;;;5048271;28;20386;-83
2022/06/13 07:05:39;;;;;;;4.45;2.40;;;;;;;;;;5046715;28;20021;-82
2022/06/13 07:08:05;;;;;;;5.25;2.30;;;;;;;;;;5050402;28;20392;-83
2022/06/13 07:10:32;;;;;;;5.28;2.10;;;;;;;;;;5050011;28;20043;-83
2022/06/13 07:12:58;;;;;;;6.80;2.67;;;;;;;;;;5047201;28;20020;-83
2022/06/13 07:15:25;;;;;;;4.80;2.50;;;;;;;;;;5051862;28;20033;-83
2022/06/13 07:17:51;;;;;;;4.25;2.47;;;;;;;;;;5048019;28;20033;-83
2022/06/13 07:20:18;;;;;;;4.82;2.20;;;;;;;;;;5046783;28;20025;-84
2022/06/13 07:22:48;;;;;;;4.25;2.40;;;;;;;;;;5048613;28;20039;-83
2022/06/13 07:25:27;;;;;;;6.10;2.35;;;;;;;;;;5046470;28;20045;-84
2022/06/13 07:27:54;;;;;;;6.15;2.70;;;;;;;;;;5046852;28;20048;-85
2022/06/13 07:30:23;;;;;;;4.65;2.40;;;;;;;;;;5041711;28;20017;-85
2022/06/13 07:32:50;;;;;;;5.20;2.42;;;;;;;;;;5049066;28;20516;-85
2022/06/13 07:35:18;;;;;;;4.55;2.63;;;;;;;;;;5046953;28;20476;-85
2022/06/13 07:40:30;;;;;;;6.20;2.88;;;;;;;;;;5064203;28;20069;-82
2022/06/13 07:43:01;;;;;;;7.63;3.08;;;;;;;;;;5052286;28;20037;-83
2022/06/13 07:45:27;;;;;;;;;;;;;;;;;;5052536;28;20917;-82
2022/06/13 07:47:54;;;;;;;6.45;3.00;;;;;;;;;;5063518;28;19917;-83
2022/06/13 07:50:22;;;;;;;15.90;3.33;;;;;;;;;;5051141;28;20502;-82
2022/06/13 07:52:49;;;;;;;15.00;3.30;;;;;;;;;;5052023;28;20033;-83
2022/06/13 07:55:15;;;;;;;6.97;2.75;;;;;;;;;;5051018;28;20035;-83
2022/06/13 07:57:42;;;;;;;4.10;2.53;;;;;;;;;;5052012;28;20043;-83
2022/06/13 08:00:11;;;;;;;5.20;2.42;;;;;;;;;;5050335;28;20365;-83
2022/06/13 08:02:37;;;;;;;4.20;2.55;;;;;;;;;;5049438;28;20124;-83
2022/06/13 08:05:04;;;;;;;7.53;2.58;;;;;;;;;;5051847;28;20067;-84
2022/06/13 08:07:30;;;;;;;5.28;2.60;;;;;;;;;;5052272;28;20036;-84
2022/06/13 08:09:57;;;;;;;6.25;2.95;;;;;;;;;;5050635;28;20063;-84
2022/06/13 08:12:24;;;;;;;5.75;2.65;;;;;;;;;;5050507;28;20440;-85
2022/06/13 08:14:50;;;;;;;6.18;2.80;;;;;;;;;;5048965;28;20024;-85
2022/06/13 08:17:19;;;;;;;9.20;2.70;;;;;;;;;;5049620;28;20024;-84
2022/06/13 08:19:45;;;;;;;5.20;2.30;;;;;;;;;;5054118;28;20017;-83
2022/06/13 08:22:14;;;;;;;7.50;2.88;;;;;;;;;;5046606;28;20043;-84
2022/06/13 08:24:41;;;;;;;6.60;2.65;;;;;;;;;;5075049;28;20048;-85
2022/06/13 08:27:08;;;;;;;8.48;2.47;;;;;;;;;;5049621;28;20512;-85
2022/06/13 08:29:34;;;;;;;2.58;2.20;;;;;;;;;;5049952;28;20031;-85
2022/06/13 08:32:02;;;;;;;7.07;2.35;;;;;;;;;;5049564;28;20051;-83
2022/06/13 08:34:28;;;;;;;5.38;2.33;;;;;;;;;;5050940;28;20033;-85
2022/06/13 08:36:56;;;;;;;6.25;2.72;;;;;;;;;;5048765;28;20025;-83
2022/06/13 08:39:23;;;;;;;4.38;2.20;;;;;;;;;;5049664;28;20044;-83
2022/06/13 08:41:55;;;;;;;4.68;2.10;;;;;;;;;;5049776;28;20035;-81
2022/06/13 08:44:24;;;;;;;2.95;2.15;;;;;;;;;;5049900;28;20055;-82
2022/06/13 08:47:09;;;;;;;4.35;2.15;;;;;;;;;;5049537;28;20021;-84
2022/06/13 08:49:42;;;;;;;4.78;2.20;;;;;;;;;;5052431;28;20040;-82
2022/06/13 08:52:12;;;;;;;4.20;2.00;;;;;;;;;;5048106;28;20021;-81
2022/06/13 08:54:40;;;;;;;3.92;2.10;;;;;;;;;;5050141;28;20497;-82
2022/06/13 08:57:10;;;;;;;4.05;2.08;;;;;;;;;;5048930;28;20025;-81
2022/06/13 08:59:42;;;;;;;4.15;2.30;;;;;;;;;;5049965;28;20024;-83
2022/06/13 09:02:14;;;;;;;4.32;2.03;;;;;;;;;;5051585;28;20021;-83
2022/06/13 09:04:41;;;;;;;4.97;2.25;;;;;;;;;;5047682;28;20095;-81
2022/06/13 09:07:13;;;;;;;5.65;1.90;;;;;;;;;;5051955;28;20021;-83
2022/06/13 09:09:46;;;;;;;3.63;2.00;;;;;;;;;;5056111;28;20032;-83
2022/06/13 09:12:17;;;;;;;3.05;2.10;;;;;;;;;;5057268;28;20037;-83
2022/06/13 09:14:45;;;;;;;5.35;2.40;;;;;;;;;;5048635;28;20025;-79
2022/06/13 09:17:20;;;;;;;4.82;1.92;;;;;;;;;;5048638;28;20051;-84
2022/06/13 09:20:02;;;;;;;5.18;1.90;;;;;;;;;;5053796;28;20027;-83
2022/06/13 09:22:34;;;;;;;3.40;2.10;;;;;;;;;;5057150;28;20408;-82
2022/06/13 09:25:17;;;;;;;3.38;2.10;;;;;;;;;;5049717;28;20098;-81
2022/06/13 09:27:50;;;;;;;3.20;1.90;;;;;;;;;;5051507;28;20017;-81
2022/06/13 09:30:22;;;;;;;4.63;2.05;;;;;;;;;;5049197;28;20039;-81
2022/06/13 09:32:53;;;;;;;2.50;1.85;;;;;;;;;;5049903;28;20027;-80
2022/06/13 09:35:22;;;;;;;5.63;2.30;;;;;;;;;;5061046;28;20029;-82
2022/06/13 09:38:01;;;;;;;5.82;2.05;;;;;;;;;;5052481;28;20017;-79
2022/06/13 09:40:48;;;;;;;3.13;1.90;;;;;;;;;;5051310;28;20027;-83
2022/06/13 09:43:33;;;;;;;4.00;2.00;;;;;;;;;;5052145;28;20497;-80
2022/06/13 09:46:25;;;;;;;3.90;1.80;;;;;;;;;;5049902;28;20033;-81
2022/06/13 09:49:11;;;;;;;4.63;2.00;;;;;;;;;;5051440;28;20044;-80
2022/06/13 09:51:37;;;;;;;6.05;1.83;;;;;;;;;;5049469;28;20506;-78
2022/06/13 09:54:03;;;;;;;3.63;1.63;;;;;;;;;;5048969;28;20029;-81
2022/06/13 09:56:37;;;;;;;5.20;2.10;;;;;;;;;;5052782;28;20044;-79
2022/06/13 09:59:03;;;;;;;3.70;1.50;;;;;;;;;;5058972;28;20029;-83
2022/06/13 10:01:53;;;;;;;5.10;1.95;;;;;;;;;;5046635;28;20385;-78
2022/06/13 10:04:22;;;;;;;2.28;1.80;;;;;;;;;;5049150;28;20039;-78
2022/06/13 10:07:07;;;;;;;8.63;2.00;;;;;;;;;;5048263;28;20043;-76
2022/06/13 10:09:33;;;;;;;4.80;1.73;;;;;;;;;;5047263;28;20051;-77
2022/06/13 10:12:03;;;;;;;5.20;2.00;;;;;;;;;;5047726;28;20024;-77
2022/06/13 10:14:49;;;;;;;3.85;2.17;;;;;;;;;;5049061;28;20027;-78
2022/06/13 10:17:31;;;;;;;3.30;2.00;;;;;;;;;;5034178;28;20017;-78
2022/06/13 10:20:32;;;;;;;3.25;1.90;;;;;;;;;;5048622;28;20021;-78
2022/06/13 10:23:08;;;;;;;5.40;2.15;;;;;;;;;;5011087;28;20038;-77
2022/06/13 10:25:34;;;;;;;4.80;2.03;;;;;;;;;;5013268;28;20085;-77
2022/06/13 10:28:16;;;;;;;7.03;2.20;;;;;;;;;;5016796;28;20530;-78
2022/06/13 10:31:03;;;;;;;3.58;2.53;;;;;;;;;;5016257;28;20061;-77
2022/06/13 10:33:35;;;;;;;6.18;2.25;;;;;;;;;;5018653;28;20048;-78
2022/06/13 10:36:10;;;;;;;6.53;2.30;;;;;;;;;;5011512;28;20021;-77
2022/06/13 10:38:39;;;;;;;6.85;2.60;;;;;;;;;;5029156;28;20048;-77
2022/06/13 10:41:06;;;;;;;3.15;1.90;;;;;;;;;;5013033;28;20131;-78
2022/06/13 10:43:33;;;;;;;4.55;1.80;;;;;;;;;;5014149;28;20034;-78
2022/06/13 10:45:59;;;;;;;3.95;1.77;;;;;;;;;;5017703;28;20037;-77
2022/06/13 10:48:30;;;;;;;6.03;2.03;;;;;;;;;;5017194;28;20418;-78
2022/06/13 10:51:00;;;;;;;4.95;2.10;;;;;;;;;;5017720;28;20041;-77
2022/06/13 10:53:34;;;;;;;3.20;1.73;;;;;;;;;;5015587;28;20024;-77
2022/06/13 10:56:02;;;;;;;2.75;2.03;;;;;;;;;;5013785;28;20045;-77
2022/06/13 10:58:41;;;;;;;4.28;2.10;;;;;;;;;;5051312;28;20407;-77
2022/06/13 11:01:07;;;;;;;5.00;1.95;;;;;;;;;;5050195;28;20021;-77
2022/06/13 11:03:34;;;;;;;4.97;1.85;;;;;;;;;;5048930;28;20025;-77
2022/06/13 11:06:00;;;;;;;3.08;1.83;;;;;;;;;;5049288;28;20032;-77
2022/06/13 11:08:27;;;;;;;7.63;1.75;;;;;;;;;;5047806;28;20409;-78
2022/06/13 11:10:56;;;;;;;3.97;1.83;;;;;;;;;;5051731;28;20029;-78
2022/06/13 11:13:34;;;;;;;13.65;2.70;;;;;;;;;;5052522;28;20033;-78
2022/06/13 11:24:44;;;;;;;5.55;2.00;;;;;;;;;;5046668;28;20539;-78
2022/06/13 11:30:20;;;;;;;9.05;2.25;;;;;;;;;;5039825;28;20049;-78
2022/06/13 11:33:05;;;;;;;5.00;2.30;;;;;;;;;;5050226;28;20029;-78
2022/06/13 11:35:37;;;;;;;8.23;2.50;;;;;;;;;;5041202;28;20047;-78
2022/06/13 11:38:15;;;;;;;4.18;2.38;;;;;;;;;;5045775;28;20420;-78
2022/06/13 11:40:42;;;;;;;3.92;2.50;;;;;;;;;;5047888;28;20033;-78
2022/06/13 11:43:18;;;;;;;3.83;2.08;;;;;;;;;;5046042;28;20029;-78
2022/06/13 11:45:53;;;;;;;5.95;2.40;;;;;;;;;;5046152;28;20029;-80
2022/06/13 11:48:19;;;;;;;8.75;2.50;;;;;;;;;;5043445;28;20529;-78
2022/06/13 11:50:46;;;;;;;4.32;2.00;;;;;;;;;;5049977;28;20396;-77
2022/06/13 11:56:00;;;;;;;6.90;2.55;;;;;;;;;;5034586;28;20534;-77
2022/06/13 11:58:28;;;;;;;4.30;2.20;;;;;;;;;;5037353;28;20452;-78
2022/06/13 12:01:12;;;;;;;6.75;2.38;;;;;;;;;;5030852;28;20041;-77
2022/06/13 12:03:41;;;;;;;8.63;2.53;;;;;;;;;;5063021;28;20024;-77
2022/06/13 12:06:10;;;;;;;8.88;2.40;;;;;;;;;;5059200;28;20559;-78
2022/06/13 12:08:37;;;;;;;;;;;;;;;;;;5051711;28;20041;-77
2022/06/13 12:11:09;;;;;;;6.80;2.60;;;;;;;;;;4990774;28;19933;-78
2022/06/13 12:13:38;;;;;;;7.45;2.20;;;;;;;;;;4992172;28;20033;-78
2022/06/13 12:16:24;;;;;;;4.00;2.10;;;;;;;;;;4992806;28;20033;-78
2022/06/13 12:18:59;;;;;;;8.10;2.53;;;;;;;;;;4993288;28;20042;-78
2022/06/13 12:21:25;;;;;;;5.22;2.60;;;;;;;;;;4992382;28;20030;-78
2022/06/13 12:23:55;;;;;;;7.78;2.38;;;;;;;;;;4991368;28;20042;-78
2022/06/13 12:26:32;;;;;;;4.18;1.75;;;;;;;;;;4993355;28;20056;-80
2022/06/13 12:28:58;;;;;;;4.55;2.20;;;;;;;;;;4992568;28;20022;-78
2022/06/13 12:31:28;;;;;;;9.00;2.30;;;;;;;;;;4990959;28;20562;-77
2022/06/13 12:33:54;;;;;;;3.20;1.95;;;;;;;;;;4996143;28;20030;-77
2022/06/13 12:36:29;;;;;;;4.95;2.10;;;;;;;;;;4998019;28;20030;-77
2022/06/13 12:39:05;;;;;;;5.03;2.10;;;;;;;;;;4992228;28;20072;-77
2022/06/13 12:41:40;;;;;;;7.38;2.08;;;;;;;;;;4993098;28;20038;-77
2022/06/13 12:44:16;;;;;;;6.63;2.30;;;;;;;;;;4993139;28;20027;-77
2022/06/13 12:46:51;;;;;;;4.13;2.03;;;;;;;;;;4993057;28;20044;-77
2022/06/13 12:49:20;;;;;;;8.52;2.17;;;;;;;;;;4992507;28;20525;-77
2022/06/13 12:51:58;;;;;;;2.67;2.03;;;;;;;;;;4992875;28;20052;-78
2022/06/13 12:54:25;;;;;;;4.70;2.00;;;;;;;;;;4992547;28;20034;-77
2022/06/13 12:57:06;;;;;;;3.78;1.92;;;;;;;;;;4992753;28;20022;-79
2022/06/13 12:59:55;;;;;;;4.25;2.00;;;;;;;;;;5004798;28;20034;-78
2022/06/13 13:02:25;;;;;;;3.80;2.30;;;;;;;;;;4988569;28;20026;-78
2022/06/13 13:04:54;;;;;;;4.55;2.10;;;;;;;;;;4993395;28;20030;-77
2022/06/13 13:07:20;;;;;;;;;;;;;;;;;;4989582;28;20469;-78
2022/06/13 13:09:47;;;;;;;6.43;2.10;;;;;;;;;;4992353;28;19920;-78
2022/06/13 13:12:13;;;;;;;4.70;1.92;;;;;;;;;;4990481;28;20035;-78
2022/06/13 13:15:04;;;;;;;5.60;1.80;;;;;;;;;;4996576;28;20024;-78
2022/06/13 13:17:33;;;;;;;4.45;2.05;;;;;;;;;;5010237;28;20023;-78
2022/06/13 13:20:00;;;;;;;5.05;2.00;;;;;;;;;;4992194;28;20038;-78
2022/06/13 13:22:36;;;;;;;5.70;2.15;;;;;;;;;;4992211;28;20483;-78
2022/06/13 13:25:05;;;;;;;4.32;2.25;;;;;;;;;;4991702;28;20054;-77
2022/06/13 13:27:40;;;;;;;3.72;2.20;;;;;;;;;;4991750;28;20454;-78
2022/06/13 13:30:12;;;;;;;5.78;1.83;;;;;;;;;;4996529;28;20045;-78
2022/06/13 13:32:59;;;;;;;6.40;1.98;;;;;;;;;;4994832;28;20022;-78
2022/06/13 13:35:26;;;;;;;4.95;2.20;;;;;;;;;;4983648;28;20022;-78
2022/06/13 13:38:09;;;;;;;5.40;2.05;;;;;;;;;;4992020;28;20040;-77
2022/06/13 13:40:45;;;;;;;7.07;2.40;;;;;;;;;;4992265;28;20030;-78
2022/06/13 13:43:17;;;;;;;5.35;1.85;;;;;;;;;;4991794;28;20034;-77
2022/06/13 13:45:48;;;;;;;5.35;2.00;;;;;;;;;;4991716;28;20400;-78
2022/06/13 13:48:14;;;;;;;6.65;1.95;;;;;;;;;;4995083;28;20044;-77
2022/06/13 13:50:44;;;;;;;8.45;2.35;;;;;;;;;;4991764;28;20503;-77
2022/06/13 13:53:13;;;;;;;6.85;2.10;;;;;;;;;;4976738;28;20025;-78
2022/06/13 13:55:44;;;;;;;8.00;2.10;;;;;;;;;;4994367;28;20022;-77
2022/06/13 13:58:20;;;;;;;5.03;1.75;;;;;;;;;;4991536;28;20048;-78
2022/06/13 14:00:49;;;;;;;6.10;2.10;;;;;;;;;;4991582;28;20029;-78
2022/06/13 14:03:16;;;;;;;4.45;1.92;;;;;;;;;;4991563;28;20026;-77
2022/06/13 14:05:49;;;;;;;4.45;1.90;;;;;;;;;;4991776;28;20026;-78
2022/06/13 14:08:17;;;;;;;4.88;1.90;;;;;;;;;;4985567;28;20052;-78
2022/06/13 14:10:45;;;;;;;5.97;1.92;;;;;;;;;;4991309;28;20018;-78
2022/06/13 14:13:13;;;;;;;6.45;1.95;;;;;;;;;;4996140;28;20069;-78
2022/06/13 14:15:49;;;;;;;7.00;1.45;;;;;;;;;;4991109;28;20380;-78
2022/06/13 14:18:21;;;;;;;5.70;1.75;;;;;;;;;;4997224;28;20029;-77
2022/06/13 14:20:48;;;;;;;8.98;1.98;;;;;;;;;;4998166;28;20036;-78
2022/06/13 14:23:18;;;;;;;4.72;1.95;;;;;;;;;;4992613;28;20033;-78
2022/06/13 14:25:45;;;;;;;5.28;1.65;;;;;;;;;;4989309;28;21383;-79
2022/06/13 14:28:19;;;;;;;8.15;1.83;;;;;;;;;;4996899;28;20033;-78
2022/06/13 14:31:04;;;;;;;5.15;1.75;;;;;;;;;;4993345;28;20105;-78
2022/06/13 14:36:50;;;;;;;5.95;2.10;;;;;;;;;;4990900;28;20038;-78
2022/06/13 14:39:16;;;;;;;10.32;2.05;;;;;;;;;;4991556;28;20030;-78
2022/06/13 14:41:44;;;;;;;7.28;2.30;;;;;;;;;;4998377;28;20026;-79
2022/06/13 14:44:16;;;;;;;4.15;1.83;;;;;;;;;;4990094;28;20082;-78
2022/06/13 14:47:07;;;;;;;8.60;2.00;;;;;;;;;;4988036;28;20034;-78
2022/06/13 14:49:39;;;;;;;5.60;2.00;;;;;;;;;;4991827;28;20040;-78
2022/06/13 14:52:28;;;;;;;6.07;1.75;;;;;;;;;;4990921;28;20033;-78
2022/06/13 14:55:03;;;;;;;3.83;1.80;;;;;;;;;;4994993;28;20075;-78
2022/06/13 14:57:29;;;;;;;7.47;2.08;;;;;;;;;;4993975;28;20042;-78
2022/06/13 15:00:04;;;;;;;8.65;2.38;;;;;;;;;;4989797;28;20023;-78
2022/06/13 15:02:36;;;;;;;7.95;1.95;;;;;;;;;;5001830;28;20040;-78
2022/06/13 15:05:07;;;;;;;6.47;2.10;;;;;;;;;;4990919;28;20038;-78
2022/06/13 15:07:44;;;;;;;7.75;1.90;;;;;;;;;;4988723;28;20041;-77
2022/06/13 15:10:16;;;;;;;5.20;2.00;;;;;;;;;;4997677;28;20087;-77
2022/06/13 15:12:44;;;;;;;5.28;1.92;;;;;;;;;;4991860;28;20414;-75
2022/06/13 15:15:17;;;;;;;5.15;1.73;;;;;;;;;;4998944;28;20042;-78
2022/06/13 15:17:43;;;;;;;5.63;1.67;;;;;;;;;;5000558;28;20034;-76
2022/06/13 15:20:30;;;;;;;5.57;1.88;;;;;;;;;;5009170;28;20041;-78
2022/06/13 15:23:00;;;;;;;7.13;1.90;;;;;;;;;;4992250;28;20023;-77
2022/06/13 15:25:43;;;;;;;5.47;2.00;;;;;;;;;;5000164;28;20036;-77
2022/06/13 15:28:12;;;;;;;6.55;1.70;;;;;;;;;;4990140;28;20373;-78
2022/06/13 15:30:42;;;;;;;8.65;1.88;;;;;;;;;;4991610;28;20038;-77
2022/06/13 15:33:19;;;;;;;6.80;2.17;;;;;;;;;;4991336;28;20541;-78
2022/06/13 15:35:45;;;;;;;8.73;2.10;;;;;;;;;;4990239;28;20032;-77